METAR ET TAF INFORMATION
METAR FOR KRDK
ADDS - METARS form results

(2036 UTC 26 May 2020)
Data provider http://aviationweather.gov/metar/data/
 
METAR text: KRDK 262015Z AUTO 29005KT 9SM BKN021 OVC028 20/20 A2974 RMK AO2
Conditions at: KRDK (RED OAK , IA, US) observed 2015 UTC 26 May 2020
Temperature: 20.0°C (68°F)
Dewpoint: 20.0°C (68°F) [RH = 100%]
Pressure (altimeter): 29.74 inches Hg (1007.2 mb)
Winds: from the WNW (290 degrees) at 6 MPH (5 knots; 2.6 m/s)
Visibility: 9 miles (14 km)
Ceiling: 2100 feet AGL
Clouds: broken clouds at 2100 feet AGL
overcast cloud deck at 2800 feet AGL
Weather: automated observation with no human augmentation;
there may or may not be significant weather present at this time

METAR text: KRDK 261955Z AUTO 28006KT 5SM -DZ FEW015 SCT028 BKN032 21/20 A2973 RMK AO2 P0005
Conditions at: KRDK (RED OAK , IA, US) observed 1955 UTC 26 May 2020
Temperature: 21.0°C (70°F)
Dewpoint: 20.0°C (68°F) [RH = 94%]
Pressure (altimeter): 29.73 inches Hg (1006.9 mb)
Winds: from the W (280 degrees) at 7 MPH (6 knots; 3.1 m/s)
Visibility: 5 miles ( 8 km)
Ceiling: 3200 feet AGL
Clouds: few clouds at 1500 feet AGL
scattered clouds at 2800 feet AGL
broken clouds at 3200 feet AGL
Weather: -DZ  (light drizzle)

 AÉROPORT DE AÉROPORT

 INFORMATIONS DE PISTE
Piste 05 Longueur de la piste 4100 ft Largeur de la piste 75 ft
Élévation de la piste 1042 ft Seuil de la piste déplacés 0 ft Runway heading 58
Piste 23 Longueur de la piste 4100 ft Largeur de la piste 75 ft
Élévation de la piste 1043 ft Seuil de la piste déplacés 0 ft Runway heading 238
Piste 14 Longueur de la piste 2050 ft Largeur de la piste 210 ft
Élévation de la piste 1042 ft Seuil de la piste déplacés 0 ft Runway heading 142
Piste 32 Longueur de la piste 2050 ft Largeur de la piste 210 ft
Élévation de la piste 1039 ft Seuil de la piste déplacés 0 ft Runway heading 322
Piste 17 Longueur de la piste 2901 ft Largeur de la piste 60 ft
Élévation de la piste 1044 ft Seuil de la piste déplacés 0 ft Runway heading 174
Piste 35 Longueur de la piste 2901 ft Largeur de la piste 60 ft
Élévation de la piste 1038 ft Seuil de la piste déplacés 0 ft Runway heading 354

 AÉROPORT FRÉQUENCES
Type A/D Nom OMAHA APP/ Féquence 124.5 MHZ
Type AWOS Nom AWOS 3 Féquence 119.775 MHZ
Type UNIC Nom CTAF/UNICO Féquence 122.8 MHZ

 SIDA DE NAVIGATION



Powered by Virtual Airlines Manager [v2.6.2]